sensor_id;sensor_type;location;lat;lon;timestamp;P1;durP1;ratioP1;P2;durP2;ratioP2
31378;SDS011;61664;48.112;11.662;2022-12-11T00:00:23;27.17;;;15.13;;
31378;SDS011;61664;48.112;11.662;2022-12-11T00:02:50;24.02;;;13.50;;
31378;SDS011;61664;48.112;11.662;2022-12-11T00:05:17;25.88;;;13.77;;
31378;SDS011;61664;48.112;11.662;2022-12-11T00:07:44;25.17;;;14.20;;
31378;SDS011;61664;48.112;11.662;2022-12-11T00:10:11;22.25;;;12.57;;
31378;SDS011;61664;48.112;11.662;2022-12-11T00:12:38;25.70;;;14.45;;
31378;SDS011;61664;48.112;11.662;2022-12-11T00:15:04;21.60;;;13.00;;
31378;SDS011;61664;48.112;11.662;2022-12-11T00:17:32;21.98;;;12.98;;
31378;SDS011;61664;48.112;11.662;2022-12-11T00:19:59;22.20;;;13.35;;
31378;SDS011;61664;48.112;11.662;2022-12-11T00:22:28;22.67;;;12.95;;
31378;SDS011;61664;48.112;11.662;2022-12-11T00:24:56;23.48;;;13.00;;
31378;SDS011;61664;48.112;11.662;2022-12-11T00:27:23;19.70;;;11.98;;
31378;SDS011;61664;48.112;11.662;2022-12-11T00:29:50;19.40;;;12.13;;
31378;SDS011;61664;48.112;11.662;2022-12-11T00:32:16;24.52;;;13.48;;
31378;SDS011;61664;48.112;11.662;2022-12-11T00:34:43;25.40;;;13.70;;
31378;SDS011;61664;48.112;11.662;2022-12-11T00:37:10;25.25;;;14.02;;
31378;SDS011;61664;48.112;11.662;2022-12-11T00:39:37;24.38;;;13.60;;
31378;SDS011;61664;48.112;11.662;2022-12-11T00:42:07;25.15;;;14.02;;
31378;SDS011;61664;48.112;11.662;2022-12-11T00:44:34;29.10;;;15.05;;
31378;SDS011;61664;48.112;11.662;2022-12-11T00:47:01;26.00;;;14.10;;
31378;SDS011;61664;48.112;11.662;2022-12-11T00:49:28;27.50;;;14.95;;
31378;SDS011;61664;48.112;11.662;2022-12-11T00:51:55;27.70;;;14.45;;
31378;SDS011;61664;48.112;11.662;2022-12-11T00:54:22;27.95;;;15.00;;
31378;SDS011;61664;48.112;11.662;2022-12-11T00:56:49;25.05;;;13.85;;
31378;SDS011;61664;48.112;11.662;2022-12-11T00:59:16;23.85;;;12.90;;
31378;SDS011;61664;48.112;11.662;2022-12-11T01:01:43;21.35;;;12.32;;
31378;SDS011;61664;48.112;11.662;2022-12-11T01:04:10;21.10;;;12.20;;
31378;SDS011;61664;48.112;11.662;2022-12-11T01:06:36;23.38;;;12.70;;
31378;SDS011;61664;48.112;11.662;2022-12-11T01:09:04;22.92;;;12.52;;
31378;SDS011;61664;48.112;11.662;2022-12-11T01:11:50;20.83;;;12.60;;
31378;SDS011;61664;48.112;11.662;2022-12-11T01:14:17;22.60;;;13.18;;
31378;SDS011;61664;48.112;11.662;2022-12-11T01:16:44;22.50;;;13.60;;
31378;SDS011;61664;48.112;11.662;2022-12-11T01:19:11;25.05;;;14.35;;
31378;SDS011;61664;48.112;11.662;2022-12-11T01:21:38;24.65;;;13.55;;
31378;SDS011;61664;48.112;11.662;2022-12-11T01:24:05;25.60;;;13.20;;
31378;SDS011;61664;48.112;11.662;2022-12-11T01:26:31;21.92;;;12.88;;
31378;SDS011;61664;48.112;11.662;2022-12-11T01:28:59;24.58;;;13.73;;
31378;SDS011;61664;48.112;11.662;2022-12-11T01:31:26;23.63;;;13.13;;
31378;SDS011;61664;48.112;11.662;2022-12-11T01:33:54;22.10;;;12.27;;
31378;SDS011;61664;48.112;11.662;2022-12-11T01:36:22;24.48;;;12.38;;
31378;SDS011;61664;48.112;11.662;2022-12-11T01:38:49;20.80;;;11.85;;
31378;SDS011;61664;48.112;11.662;2022-12-11T01:41:16;24.77;;;13.10;;
31378;SDS011;61664;48.112;11.662;2022-12-11T01:46:25;19.45;;;11.68;;
31378;SDS011;61664;48.112;11.662;2022-12-11T01:48:53;23.00;;;13.10;;
31378;SDS011;61664;48.112;11.662;2022-12-11T01:51:21;20.88;;;11.82;;
31378;SDS011;61664;48.112;11.662;2022-12-11T01:53:50;23.98;;;12.90;;
31378;SDS011;61664;48.112;11.662;2022-12-11T01:56:25;21.48;;;11.82;;
31378;SDS011;61664;48.112;11.662;2022-12-11T01:58:56;20.52;;;12.00;;
31378;SDS011;61664;48.112;11.662;2022-12-11T02:01:34;24.27;;;12.63;;
31378;SDS011;61664;48.112;11.662;2022-12-11T02:04:13;21.52;;;12.00;;
31378;SDS011;61664;48.112;11.662;2022-12-11T02:06:47;21.20;;;12.27;;
31378;SDS011;61664;48.112;11.662;2022-12-11T02:09:27;21.23;;;11.43;;
31378;SDS011;61664;48.112;11.662;2022-12-11T02:20:53;23.13;;;13.98;;
31378;SDS011;61664;48.112;11.662;2022-12-11T02:26:46;20.42;;;11.90;;
31378;SDS011;61664;48.112;11.662;2022-12-11T02:29:12;22.42;;;12.30;;
31378;SDS011;61664;48.112;11.662;2022-12-11T02:32:02;17.55;;;10.60;;
31378;SDS011;61664;48.112;11.662;2022-12-11T02:34:41;20.65;;;11.63;;
31378;SDS011;61664;48.112;11.662;2022-12-11T02:37:15;18.80;;;11.52;;
31378;SDS011;61664;48.112;11.662;2022-12-11T02:39:53;20.13;;;11.63;;
31378;SDS011;61664;48.112;11.662;2022-12-11T02:42:22;19.83;;;11.63;;
31378;SDS011;61664;48.112;11.662;2022-12-11T02:44:55;19.38;;;12.10;;
31378;SDS011;61664;48.112;11.662;2022-12-11T02:47:26;19.60;;;11.82;;
31378;SDS011;61664;48.112;11.662;2022-12-11T02:49:58;18.23;;;11.15;;
31378;SDS011;61664;48.112;11.662;2022-12-11T02:52:32;22.08;;;11.40;;
31378;SDS011;61664;48.112;11.662;2022-12-11T02:55:02;17.03;;;10.43;;
31378;SDS011;61664;48.112;11.662;2022-12-11T02:57:37;18.13;;;11.40;;
31378;SDS011;61664;48.112;11.662;2022-12-11T03:00:18;17.42;;;11.02;;
31378;SDS011;61664;48.112;11.662;2022-12-11T03:02:45;17.85;;;10.27;;
31378;SDS011;61664;48.112;11.662;2022-12-11T03:05:13;16.13;;;9.90;;
31378;SDS011;61664;48.112;11.662;2022-12-11T03:07:42;18.98;;;10.85;;
31378;SDS011;61664;48.112;11.662;2022-12-11T03:10:11;20.70;;;11.98;;
31378;SDS011;61664;48.112;11.662;2022-12-11T03:12:44;18.33;;;11.38;;
31378;SDS011;61664;48.112;11.662;2022-12-11T03:15:19;17.80;;;10.07;;
31378;SDS011;61664;48.112;11.662;2022-12-11T03:21:04;17.48;;;10.48;;
31378;SDS011;61664;48.112;11.662;2022-12-11T03:26:09;16.60;;;10.05;;
31378;SDS011;61664;48.112;11.662;2022-12-11T03:31:20;13.75;;;8.95;;
31378;SDS011;61664;48.112;11.662;2022-12-11T03:34:03;14.13;;;9.18;;
31378;SDS011;61664;48.112;11.662;2022-12-11T03:36:41;13.65;;;8.20;;
31378;SDS011;61664;48.112;11.662;2022-12-11T03:39:16;17.00;;;9.60;;
31378;SDS011;61664;48.112;11.662;2022-12-11T03:41:52;14.05;;;8.13;;
31378;SDS011;61664;48.112;11.662;2022-12-11T03:44:21;13.43;;;8.63;;
31378;SDS011;61664;48.112;11.662;2022-12-11T03:46:50;11.43;;;7.47;;
31378;SDS011;61664;48.112;11.662;2022-12-11T03:49:21;13.70;;;8.57;;
31378;SDS011;61664;48.112;11.662;2022-12-11T03:51:53;16.40;;;9.70;;
31378;SDS011;61664;48.112;11.662;2022-12-11T03:54:23;11.85;;;8.25;;
31378;SDS011;61664;48.112;11.662;2022-12-11T03:56:52;14.85;;;8.65;;
31378;SDS011;61664;48.112;11.662;2022-12-11T03:59:23;14.15;;;8.70;;
31378;SDS011;61664;48.112;11.662;2022-12-11T04:01:50;13.60;;;8.27;;
31378;SDS011;61664;48.112;11.662;2022-12-11T04:04:17;13.82;;;8.77;;
31378;SDS011;61664;48.112;11.662;2022-12-11T04:06:44;12.48;;;7.97;;
31378;SDS011;61664;48.112;11.662;2022-12-11T04:09:11;14.25;;;8.57;;
31378;SDS011;61664;48.112;11.662;2022-12-11T04:11:38;12.98;;;8.88;;
31378;SDS011;61664;48.112;11.662;2022-12-11T04:14:06;11.95;;;8.30;;
31378;SDS011;61664;48.112;11.662;2022-12-11T04:16:56;12.68;;;8.35;;
31378;SDS011;61664;48.112;11.662;2022-12-11T04:19:25;12.65;;;7.55;;
31378;SDS011;61664;48.112;11.662;2022-12-11T04:22:11;13.55;;;8.48;;
31378;SDS011;61664;48.112;11.662;2022-12-11T04:25:00;12.15;;;8.40;;
31378;SDS011;61664;48.112;11.662;2022-12-11T04:27:28;13.02;;;7.97;;
31378;SDS011;61664;48.112;11.662;2022-12-11T04:30:15;9.07;;;6.90;;
31378;SDS011;61664;48.112;11.662;2022-12-11T04:32:48;12.18;;;7.65;;
31378;SDS011;61664;48.112;11.662;2022-12-11T04:35:16;11.30;;;7.68;;
31378;SDS011;61664;48.112;11.662;2022-12-11T04:37:43;9.68;;;6.68;;
31378;SDS011;61664;48.112;11.662;2022-12-11T04:40:11;9.57;;;6.57;;
31378;SDS011;61664;48.112;11.662;2022-12-11T04:42:41;11.18;;;7.28;;
31378;SDS011;61664;48.112;11.662;2022-12-11T04:45:08;12.48;;;7.68;;
31378;SDS011;61664;48.112;11.662;2022-12-11T04:47:37;10.20;;;7.32;;
31378;SDS011;61664;48.112;11.662;2022-12-11T04:50:06;12.63;;;7.85;;
31378;SDS011;61664;48.112;11.662;2022-12-11T04:52:36;10.23;;;7.68;;
31378;SDS011;61664;48.112;11.662;2022-12-11T04:55:04;13.43;;;8.13;;
31378;SDS011;61664;48.112;11.662;2022-12-11T04:57:32;13.88;;;8.85;;
31378;SDS011;61664;48.112;11.662;2022-12-11T05:00:00;12.05;;;8.45;;
31378;SDS011;61664;48.112;11.662;2022-12-11T05:02:27;14.52;;;9.07;;
31378;SDS011;61664;48.112;11.662;2022-12-11T05:04:54;12.32;;;8.45;;
31378;SDS011;61664;48.112;11.662;2022-12-11T05:07:20;13.02;;;7.97;;
31378;SDS011;61664;48.112;11.662;2022-12-11T05:09:47;10.65;;;7.13;;
31378;SDS011;61664;48.112;11.662;2022-12-11T05:12:14;10.18;;;7.20;;
31378;SDS011;61664;48.112;11.662;2022-12-11T05:14:41;11.45;;;7.47;;
31378;SDS011;61664;48.112;11.662;2022-12-11T05:17:08;11.40;;;6.70;;
31378;SDS011;61664;48.112;11.662;2022-12-11T05:19:35;11.48;;;7.38;;
31378;SDS011;61664;48.112;11.662;2022-12-11T05:22:01;11.82;;;7.22;;
31378;SDS011;61664;48.112;11.662;2022-12-11T05:24:28;11.05;;;7.28;;
31378;SDS011;61664;48.112;11.662;2022-12-11T05:26:55;10.32;;;7.20;;
31378;SDS011;61664;48.112;11.662;2022-12-11T05:29:22;10.98;;;7.22;;
31378;SDS011;61664;48.112;11.662;2022-12-11T05:31:49;11.32;;;7.90;;
31378;SDS011;61664;48.112;11.662;2022-12-11T05:34:16;11.90;;;7.50;;
31378;SDS011;61664;48.112;11.662;2022-12-11T05:36:43;12.70;;;8.50;;
31378;SDS011;61664;48.112;11.662;2022-12-11T05:39:10;14.70;;;8.75;;
31378;SDS011;61664;48.112;11.662;2022-12-11T05:41:37;14.20;;;9.50;;
31378;SDS011;61664;48.112;11.662;2022-12-11T05:44:04;13.55;;;8.45;;
31378;SDS011;61664;48.112;11.662;2022-12-11T05:46:31;12.35;;;8.07;;
31378;SDS011;61664;48.112;11.662;2022-12-11T05:48:59;11.85;;;7.40;;
31378;SDS011;61664;48.112;11.662;2022-12-11T05:51:28;17.98;;;8.95;;
31378;SDS011;61664;48.112;11.662;2022-12-11T05:53:59;12.93;;;8.27;;
31378;SDS011;61664;48.112;11.662;2022-12-11T05:56:27;12.15;;;8.15;;
31378;SDS011;61664;48.112;11.662;2022-12-11T05:58:59;12.65;;;8.10;;
31378;SDS011;61664;48.112;11.662;2022-12-11T06:01:29;12.85;;;7.93;;
31378;SDS011;61664;48.112;11.662;2022-12-11T06:04:08;11.05;;;7.75;;
31378;SDS011;61664;48.112;11.662;2022-12-11T06:06:37;10.00;;;7.05;;
31378;SDS011;61664;48.112;11.662;2022-12-11T06:09:05;9.57;;;6.82;;
31378;SDS011;61664;48.112;11.662;2022-12-11T06:11:33;9.30;;;6.78;;
31378;SDS011;61664;48.112;11.662;2022-12-11T06:14:01;9.00;;;6.63;;
31378;SDS011;61664;48.112;11.662;2022-12-11T06:16:29;9.93;;;6.40;;
31378;SDS011;61664;48.112;11.662;2022-12-11T06:18:57;9.10;;;6.10;;
31378;SDS011;61664;48.112;11.662;2022-12-11T06:21:26;10.00;;;6.47;;
31378;SDS011;61664;48.112;11.662;2022-12-11T06:23:55;8.32;;;6.43;;
31378;SDS011;61664;48.112;11.662;2022-12-11T06:26:25;10.15;;;6.80;;
31378;SDS011;61664;48.112;11.662;2022-12-11T06:28:53;9.02;;;6.57;;
31378;SDS011;61664;48.112;11.662;2022-12-11T06:31:21;11.32;;;7.22;;
31378;SDS011;61664;48.112;11.662;2022-12-11T06:33:48;12.05;;;6.90;;
31378;SDS011;61664;48.112;11.662;2022-12-11T06:36:17;9.38;;;6.53;;
31378;SDS011;61664;48.112;11.662;2022-12-11T06:38:46;10.73;;;7.20;;
31378;SDS011;61664;48.112;11.662;2022-12-11T06:41:13;11.13;;;6.78;;
31378;SDS011;61664;48.112;11.662;2022-12-11T06:43:41;11.20;;;7.57;;
31378;SDS011;61664;48.112;11.662;2022-12-11T06:46:09;11.70;;;7.88;;
31378;SDS011;61664;48.112;11.662;2022-12-11T06:48:40;13.13;;;8.02;;
31378;SDS011;61664;48.112;11.662;2022-12-11T06:51:09;11.30;;;7.70;;
31378;SDS011;61664;48.112;11.662;2022-12-11T06:53:50;11.13;;;7.60;;
31378;SDS011;61664;48.112;11.662;2022-12-11T06:56:19;11.13;;;7.22;;
31378;SDS011;61664;48.112;11.662;2022-12-11T06:58:48;9.73;;;6.43;;
31378;SDS011;61664;48.112;11.662;2022-12-11T07:01:18;10.50;;;7.28;;
31378;SDS011;61664;48.112;11.662;2022-12-11T07:04:00;11.50;;;7.43;;
31378;SDS011;61664;48.112;11.662;2022-12-11T07:06:27;11.73;;;7.13;;
31378;SDS011;61664;48.112;11.662;2022-12-11T07:08:54;12.55;;;7.18;;
31378;SDS011;61664;48.112;11.662;2022-12-11T07:11:22;11.38;;;8.18;;
31378;SDS011;61664;48.112;11.662;2022-12-11T07:13:49;16.35;;;8.93;;
31378;SDS011;61664;48.112;11.662;2022-12-11T07:16:16;12.93;;;8.35;;
31378;SDS011;61664;48.112;11.662;2022-12-11T07:18:47;12.93;;;8.48;;
31378;SDS011;61664;48.112;11.662;2022-12-11T07:21:16;15.52;;;8.95;;
31378;SDS011;61664;48.112;11.662;2022-12-11T07:23:46;15.20;;;9.27;;
31378;SDS011;61664;48.112;11.662;2022-12-11T07:26:14;15.43;;;9.85;;
31378;SDS011;61664;48.112;11.662;2022-12-11T07:28:45;17.15;;;10.02;;
31378;SDS011;61664;48.112;11.662;2022-12-11T07:31:21;11.43;;;8.00;;
31378;SDS011;61664;48.112;11.662;2022-12-11T07:33:54;15.75;;;8.52;;
31378;SDS011;61664;48.112;11.662;2022-12-11T07:36:24;13.68;;;9.25;;
31378;SDS011;61664;48.112;11.662;2022-12-11T07:38:52;15.75;;;9.50;;
31378;SDS011;61664;48.112;11.662;2022-12-11T07:41:19;18.30;;;10.45;;
31378;SDS011;61664;48.112;11.662;2022-12-11T07:43:47;14.73;;;9.43;;
31378;SDS011;61664;48.112;11.662;2022-12-11T07:46:16;18.75;;;10.65;;
31378;SDS011;61664;48.112;11.662;2022-12-11T07:48:47;17.77;;;10.32;;
31378;SDS011;61664;48.112;11.662;2022-12-11T07:51:18;15.77;;;9.80;;
31378;SDS011;61664;48.112;11.662;2022-12-11T07:53:54;17.90;;;10.32;;
31378;SDS011;61664;48.112;11.662;2022-12-11T07:56:27;17.33;;;10.43;;
31378;SDS011;61664;48.112;11.662;2022-12-11T07:58:57;18.75;;;11.00;;
31378;SDS011;61664;48.112;11.662;2022-12-11T08:01:30;15.85;;;10.02;;
31378;SDS011;61664;48.112;11.662;2022-12-11T08:04:02;19.25;;;11.63;;
31378;SDS011;61664;48.112;11.662;2022-12-11T08:06:37;18.80;;;11.10;;
31378;SDS011;61664;48.112;11.662;2022-12-11T08:09:07;22.13;;;12.45;;
31378;SDS011;61664;48.112;11.662;2022-12-11T08:11:47;18.80;;;10.80;;
31378;SDS011;61664;48.112;11.662;2022-12-11T08:14:18;17.13;;;10.18;;
31378;SDS011;61664;48.112;11.662;2022-12-11T08:16:45;16.83;;;10.57;;
31378;SDS011;61664;48.112;11.662;2022-12-11T08:19:14;18.05;;;11.48;;
31378;SDS011;61664;48.112;11.662;2022-12-11T08:21:41;29.00;;;15.85;;
31378;SDS011;61664;48.112;11.662;2022-12-11T08:24:08;21.17;;;12.52;;
31378;SDS011;61664;48.112;11.662;2022-12-11T08:26:35;24.63;;;11.48;;
31378;SDS011;61664;48.112;11.662;2022-12-11T08:29:02;19.50;;;11.38;;
31378;SDS011;61664;48.112;11.662;2022-12-11T08:31:29;18.75;;;11.77;;
31378;SDS011;61664;48.112;11.662;2022-12-11T08:33:56;17.60;;;10.45;;
31378;SDS011;61664;48.112;11.662;2022-12-11T08:36:24;20.17;;;11.27;;
31378;SDS011;61664;48.112;11.662;2022-12-11T08:38:51;20.20;;;12.10;;
31378;SDS011;61664;48.112;11.662;2022-12-11T08:41:22;19.63;;;11.40;;
31378;SDS011;61664;48.112;11.662;2022-12-11T08:43:52;17.20;;;10.80;;
31378;SDS011;61664;48.112;11.662;2022-12-11T08:46:21;13.88;;;10.38;;
31378;SDS011;61664;48.112;11.662;2022-12-11T08:48:52;19.55;;;11.35;;
31378;SDS011;61664;48.112;11.662;2022-12-11T08:51:21;17.60;;;10.57;;
31378;SDS011;61664;48.112;11.662;2022-12-11T08:53:53;17.27;;;10.77;;
31378;SDS011;61664;48.112;11.662;2022-12-11T08:56:23;19.02;;;10.68;;
31378;SDS011;61664;48.112;11.662;2022-12-11T08:58:51;16.75;;;11.13;;
31378;SDS011;61664;48.112;11.662;2022-12-11T09:01:19;17.95;;;11.30;;
31378;SDS011;61664;48.112;11.662;2022-12-11T09:03:50;16.77;;;10.55;;
31378;SDS011;61664;48.112;11.662;2022-12-11T09:06:19;16.50;;;10.68;;
31378;SDS011;61664;48.112;11.662;2022-12-11T09:08:49;17.23;;;11.07;;
31378;SDS011;61664;48.112;11.662;2022-12-11T09:11:19;16.55;;;10.25;;
31378;SDS011;61664;48.112;11.662;2022-12-11T09:13:54;23.13;;;14.02;;
31378;SDS011;61664;48.112;11.662;2022-12-11T09:16:22;22.35;;;13.57;;
31378;SDS011;61664;48.112;11.662;2022-12-11T09:18:51;21.05;;;12.45;;
31378;SDS011;61664;48.112;11.662;2022-12-11T09:21:22;20.70;;;12.95;;
31378;SDS011;61664;48.112;11.662;2022-12-11T09:23:56;17.95;;;11.43;;
31378;SDS011;61664;48.112;11.662;2022-12-11T09:26:26;16.85;;;11.43;;
31378;SDS011;61664;48.112;11.662;2022-12-11T09:28:55;15.57;;;10.32;;
31378;SDS011;61664;48.112;11.662;2022-12-11T09:31:24;13.95;;;9.85;;
31378;SDS011;61664;48.112;11.662;2022-12-11T09:33:57;13.85;;;10.05;;
31378;SDS011;61664;48.112;11.662;2022-12-11T09:36:27;15.65;;;10.30;;
31378;SDS011;61664;48.112;11.662;2022-12-11T09:38:55;15.68;;;9.35;;
31378;SDS011;61664;48.112;11.662;2022-12-11T09:46:48;12.30;;;8.47;;
31378;SDS011;61664;48.112;11.662;2022-12-11T09:49:21;13.93;;;8.43;;
31378;SDS011;61664;48.112;11.662;2022-12-11T09:52:09;13.32;;;8.75;;
31378;SDS011;61664;48.112;11.662;2022-12-11T09:54:48;11.85;;;8.73;;
31378;SDS011;61664;48.112;11.662;2022-12-11T10:06:27;12.80;;;9.02;;
31378;SDS011;61664;48.112;11.662;2022-12-11T10:18:05;9.02;;;6.90;;
31378;SDS011;61664;48.112;11.662;2022-12-11T10:20:40;11.13;;;7.45;;
31378;SDS011;61664;48.112;11.662;2022-12-11T10:23:16;13.23;;;8.88;;
31378;SDS011;61664;48.112;11.662;2022-12-11T10:26:21;9.05;;;6.93;;
31378;SDS011;61664;48.112;11.662;2022-12-11T10:28:49;11.15;;;8.32;;
31378;SDS011;61664;48.112;11.662;2022-12-11T10:31:18;9.25;;;7.13;;
31378;SDS011;61664;48.112;11.662;2022-12-11T10:34:11;11.05;;;8.20;;
31378;SDS011;61664;48.112;11.662;2022-12-11T10:36:47;9.07;;;6.93;;
31378;SDS011;61664;48.112;11.662;2022-12-11T10:39:15;9.93;;;7.40;;
31378;SDS011;61664;48.112;11.662;2022-12-11T10:41:48;9.60;;;6.63;;
31378;SDS011;61664;48.112;11.662;2022-12-11T10:49:37;8.15;;;6.40;;
31378;SDS011;61664;48.112;11.662;2022-12-11T10:52:31;9.70;;;7.07;;
31378;SDS011;61664;48.112;11.662;2022-12-11T10:55:16;9.73;;;7.20;;
31378;SDS011;61664;48.112;11.662;2022-12-11T10:57:57;9.98;;;6.85;;
31378;SDS011;61664;48.112;11.662;2022-12-11T11:00:29;10.77;;;7.82;;
31378;SDS011;61664;48.112;11.662;2022-12-11T11:03:00;11.80;;;7.85;;
31378;SDS011;61664;48.112;11.662;2022-12-11T11:08:03;9.65;;;7.20;;
31378;SDS011;61664;48.112;11.662;2022-12-11T11:13:24;14.07;;;9.32;;
31378;SDS011;61664;48.112;11.662;2022-12-11T11:16:05;11.65;;;8.25;;
31378;SDS011;61664;48.112;11.662;2022-12-11T11:18:38;13.82;;;9.02;;
31378;SDS011;61664;48.112;11.662;2022-12-11T11:21:14;13.13;;;9.20;;
31378;SDS011;61664;48.112;11.662;2022-12-11T11:23:44;11.88;;;8.25;;
31378;SDS011;61664;48.112;11.662;2022-12-11T11:26:19;11.10;;;7.85;;
31378;SDS011;61664;48.112;11.662;2022-12-11T11:28:49;10.20;;;7.05;;
31378;SDS011;61664;48.112;11.662;2022-12-11T11:31:20;12.77;;;8.32;;
31378;SDS011;61664;48.112;11.662;2022-12-11T11:34:01;10.73;;;7.82;;
31378;SDS011;61664;48.112;11.662;2022-12-11T11:36:34;12.15;;;7.85;;
31378;SDS011;61664;48.112;11.662;2022-12-11T11:44:24;11.95;;;7.93;;
31378;SDS011;61664;48.112;11.662;2022-12-11T11:47:01;9.07;;;7.55;;
31378;SDS011;61664;48.112;11.662;2022-12-11T11:49:48;9.82;;;6.85;;
31378;SDS011;61664;48.112;11.662;2022-12-11T11:52:45;11.38;;;7.22;;
31378;SDS011;61664;48.112;11.662;2022-12-11T11:58:15;8.63;;;6.75;;
31378;SDS011;61664;48.112;11.662;2022-12-11T12:00:51;8.73;;;7.10;;
31378;SDS011;61664;48.112;11.662;2022-12-11T12:08:56;9.15;;;5.85;;
31378;SDS011;61664;48.112;11.662;2022-12-11T12:14:15;8.57;;;6.68;;
31378;SDS011;61664;48.112;11.662;2022-12-11T12:28:42;9.57;;;6.13;;
31378;SDS011;61664;48.112;11.662;2022-12-11T12:34:49;9.32;;;6.10;;
31378;SDS011;61664;48.112;11.662;2022-12-11T12:48:35;8.15;;;6.47;;
31378;SDS011;61664;48.112;11.662;2022-12-11T12:51:03;8.60;;;6.47;;
31378;SDS011;61664;48.112;11.662;2022-12-11T12:53:32;9.75;;;6.38;;
31378;SDS011;61664;48.112;11.662;2022-12-11T12:56:02;8.48;;;6.65;;
31378;SDS011;61664;48.112;11.662;2022-12-11T13:04:00;7.00;;;5.57;;
31378;SDS011;61664;48.112;11.662;2022-12-11T13:11:47;6.15;;;5.55;;
31378;SDS011;61664;48.112;11.662;2022-12-11T13:16:49;7.03;;;5.28;;
31378;SDS011;61664;48.112;11.662;2022-12-11T13:21:54;7.25;;;5.88;;
31378;SDS011;61664;48.112;11.662;2022-12-11T13:25:15;7.82;;;6.03;;
31378;SDS011;61664;48.112;11.662;2022-12-11T13:27:46;6.60;;;4.88;;
31378;SDS011;61664;48.112;11.662;2022-12-11T13:32:41;6.57;;;5.30;;
31378;SDS011;61664;48.112;11.662;2022-12-11T13:35:25;8.07;;;5.93;;
31378;SDS011;61664;48.112;11.662;2022-12-11T13:37:53;7.13;;;5.38;;
31378;SDS011;61664;48.112;11.662;2022-12-11T13:40:31;9.10;;;6.25;;
31378;SDS011;61664;48.112;11.662;2022-12-11T13:43:08;8.25;;;5.88;;
31378;SDS011;61664;48.112;11.662;2022-12-11T13:45:50;8.60;;;6.28;;
31378;SDS011;61664;48.112;11.662;2022-12-11T13:49:06;6.63;;;5.78;;
31378;SDS011;61664;48.112;11.662;2022-12-11T13:51:17;5.97;;;5.20;;
31378;SDS011;61664;48.112;11.662;2022-12-11T13:53:48;7.93;;;6.60;;
31378;SDS011;61664;48.112;11.662;2022-12-11T13:59:51;7.72;;;6.25;;
31378;SDS011;61664;48.112;11.662;2022-12-11T14:05:00;9.27;;;6.00;;
31378;SDS011;61664;48.112;11.662;2022-12-11T14:07:33;9.38;;;6.20;;
31378;SDS011;61664;48.112;11.662;2022-12-11T14:10:15;7.72;;;5.88;;
31378;SDS011;61664;48.112;11.662;2022-12-11T14:15:27;7.18;;;5.63;;
31378;SDS011;61664;48.112;11.662;2022-12-11T14:17:56;7.80;;;5.93;;
31378;SDS011;61664;48.112;11.662;2022-12-11T14:20:26;7.22;;;6.05;;
31378;SDS011;61664;48.112;11.662;2022-12-11T14:28:47;8.52;;;5.78;;
31378;SDS011;61664;48.112;11.662;2022-12-11T14:31:18;6.78;;;4.97;;
31378;SDS011;61664;48.112;11.662;2022-12-11T14:33:58;8.07;;;5.95;;
31378;SDS011;61664;48.112;11.662;2022-12-11T14:36:32;8.40;;;6.50;;
31378;SDS011;61664;48.112;11.662;2022-12-11T14:39:03;6.82;;;5.93;;
31378;SDS011;61664;48.112;11.662;2022-12-11T14:42:13;7.78;;;5.15;;
31378;SDS011;61664;48.112;11.662;2022-12-11T14:45:00;7.13;;;5.60;;
31378;SDS011;61664;48.112;11.662;2022-12-11T14:47:38;6.80;;;5.43;;
31378;SDS011;61664;48.112;11.662;2022-12-11T14:52:49;12.52;;;10.50;;
31378;SDS011;61664;48.112;11.662;2022-12-11T14:55:26;7.97;;;6.53;;
31378;SDS011;61664;48.112;11.662;2022-12-11T14:57:58;8.23;;;5.80;;
31378;SDS011;61664;48.112;11.662;2022-12-11T15:01:03;6.28;;;5.47;;
31378;SDS011;61664;48.112;11.662;2022-12-11T15:03:45;6.22;;;5.63;;
31378;SDS011;61664;48.112;11.662;2022-12-11T15:06:23;7.20;;;5.65;;
31378;SDS011;61664;48.112;11.662;2022-12-11T15:08:54;10.50;;;7.45;;
31378;SDS011;61664;48.112;11.662;2022-12-11T15:11:22;11.70;;;8.13;;
31378;SDS011;61664;48.112;11.662;2022-12-11T15:13:57;9.10;;;7.10;;
31378;SDS011;61664;48.112;11.662;2022-12-11T15:16:30;10.35;;;7.10;;
31378;SDS011;61664;48.112;11.662;2022-12-11T15:19:02;11.38;;;6.53;;
31378;SDS011;61664;48.112;11.662;2022-12-11T15:21:30;12.60;;;8.13;;
31378;SDS011;61664;48.112;11.662;2022-12-11T15:24:01;12.82;;;8.63;;
31378;SDS011;61664;48.112;11.662;2022-12-11T15:34:55;13.95;;;9.15;;
31378;SDS011;61664;48.112;11.662;2022-12-11T15:37:28;12.40;;;7.82;;
31378;SDS011;61664;48.112;11.662;2022-12-11T15:39:57;14.02;;;8.75;;
31378;SDS011;61664;48.112;11.662;2022-12-11T15:42:29;11.18;;;7.93;;
31378;SDS011;61664;48.112;11.662;2022-12-11T15:45:04;10.40;;;7.05;;
31378;SDS011;61664;48.112;11.662;2022-12-11T15:47:35;12.00;;;7.47;;
31378;SDS011;61664;48.112;11.662;2022-12-11T15:50:10;10.27;;;7.32;;
31378;SDS011;61664;48.112;11.662;2022-12-11T15:52:42;8.48;;;6.22;;
31378;SDS011;61664;48.112;11.662;2022-12-11T15:55:11;11.20;;;7.70;;
31378;SDS011;61664;48.112;11.662;2022-12-11T15:57:50;12.35;;;7.75;;
31378;SDS011;61664;48.112;11.662;2022-12-11T16:00:26;9.43;;;6.95;;
31378;SDS011;61664;48.112;11.662;2022-12-11T16:02:54;9.40;;;6.72;;
31378;SDS011;61664;48.112;11.662;2022-12-11T16:05:22;9.05;;;5.90;;
31378;SDS011;61664;48.112;11.662;2022-12-11T16:07:50;8.52;;;6.47;;
31378;SDS011;61664;48.112;11.662;2022-12-11T16:10:20;8.05;;;6.85;;
31378;SDS011;61664;48.112;11.662;2022-12-11T16:12:47;8.00;;;6.53;;
31378;SDS011;61664;48.112;11.662;2022-12-11T16:15:14;10.88;;;6.88;;
31378;SDS011;61664;48.112;11.662;2022-12-11T16:17:48;12.13;;;7.15;;
31378;SDS011;61664;48.112;11.662;2022-12-11T16:20:15;9.38;;;6.43;;
31378;SDS011;61664;48.112;11.662;2022-12-11T16:22:42;12.40;;;7.90;;
31378;SDS011;61664;48.112;11.662;2022-12-11T16:25:09;13.48;;;7.80;;
31378;SDS011;61664;48.112;11.662;2022-12-11T16:27:37;10.55;;;8.68;;
31378;SDS011;61664;48.112;11.662;2022-12-11T16:30:04;12.27;;;8.07;;
31378;SDS011;61664;48.112;11.662;2022-12-11T16:32:32;11.50;;;8.85;;
31378;SDS011;61664;48.112;11.662;2022-12-11T16:34:59;12.35;;;8.30;;
31378;SDS011;61664;48.112;11.662;2022-12-11T16:37:26;11.20;;;8.13;;
31378;SDS011;61664;48.112;11.662;2022-12-11T16:39:53;12.15;;;8.50;;
31378;SDS011;61664;48.112;11.662;2022-12-11T16:42:20;12.15;;;8.40;;
31378;SDS011;61664;48.112;11.662;2022-12-11T16:44:47;9.40;;;7.78;;
31378;SDS011;61664;48.112;11.662;2022-12-11T16:47:14;12.63;;;8.82;;
31378;SDS011;61664;48.112;11.662;2022-12-11T16:49:41;13.60;;;9.35;;
31378;SDS011;61664;48.112;11.662;2022-12-11T16:52:08;15.75;;;9.57;;
31378;SDS011;61664;48.112;11.662;2022-12-11T16:54:35;13.98;;;9.18;;
31378;SDS011;61664;48.112;11.662;2022-12-11T16:57:02;10.63;;;8.13;;
31378;SDS011;61664;48.112;11.662;2022-12-11T16:59:29;14.60;;;9.15;;
31378;SDS011;61664;48.112;11.662;2022-12-11T17:02:02;14.25;;;8.35;;
31378;SDS011;61664;48.112;11.662;2022-12-11T17:04:29;13.65;;;8.57;;
31378;SDS011;61664;48.112;11.662;2022-12-11T17:06:56;13.07;;;8.30;;
31378;SDS011;61664;48.112;11.662;2022-12-11T17:09:23;14.50;;;9.38;;